McCracken, Kansas
Current Conditions -  °F | °C
As of 1:55 PM on Saturday 25 Oct 2014 (Local Time) from KHYS Reporting Station
Clear Clear  
Wind Chill: 81°   Ceiling: Unl
Heat Index: 81°   Visibility: 10mi
Dew Point: 54°   Wind: 5mph
Humidity: 39%   Direction: 130°SE
Pressure: 30.05"   Gusts: NA
Location:  38.58°N, 99.57°W
Report Text: KHYS 251855Z AUTO 13004KT 10SM CLR 27/12 A3005 RMK AO1
Loading
Personal Weather Stations






























Interactive Weather Map
Tropical Storm Tracking
New forecast layout! Learn more

10-Day Weather Forecast

Advertisements
Track Severe Weather on mobile